Eastern Sierra Regional Airport
KBIH : now visible

Airfield :











YOU CAN JOIN US ON...

 
LOGIN :

Register | Disclaimer

   EN    FR    IT 

 









Legend :    VFR   Marginal VFR   IFR   Intensive IFR   Very Intensive IFR
Visi :
Ceiling :
>= 8 km
>= 3000ft
5 to 8 km
1000 to 3000 ft
1500m to 5 km
500 to 1000 ft
800 to 1500m
200 to 500 ft
< 800m
< 200 ft
Symbols :   Thunderstorms  Fog  Heavy snow  Heavy precipitations  Wind > 20 kt






- Airport Elevation : 4124 ft


KBIH - Eastern Sierra Regional

CURRENT METAR :
  • 042356Z AUTO 18008G18KT 10SM CLR 38/01 A2996 RMK AO2 SLP089 T03830006 10400 20356 56020

EXPIRED METARs :
  • 042256Z AUTO 18013G21KT 10SM CLR 39/01 A2998 RMK AO2 SLP094 T03890006
  • 042156Z AUTO 17014G21KT 10SM CLR 39/00 A3001 RMK AO2 SLP100 T03940000

TAF KBIH
Valid from the 05 at 00:00 until the 06 at 00:00 UTC


042320Z 0500/0524 17015G22KT P6SM SCT100
FM050200 20010KT P6SM SKC
FM050700 31006KT P6SM SKC
FM051800 16010G18KT P6SM SKC
FM052200 25017G25KT P6SM SKC
KZOA FIR / North America



MET'MAP, your aeronautical weather chart ! - Copyright ORBIFLY December 2007 - Disclaimer

ORBIFLY MET'MAP TEAM :

Programming & Development : Alexandra Zaïnal
Concept & original design : Baudouin d'Aumeries
Assistance for programming : Marc-Olivier Méhu
Technical & hardware support : Manuel Goepfert

Contact : metmap@orbifly.com




SOURCES & CREDITS :

   NOAA       Earth
Advisory